Grand Lake, CO

10:02 PM MDT on July 07, 2015 (GMT -0600)
Innsbruck | | Change Station
CLOSE
Current Station
Personal Weather Station
Location: Granby, CO
Elevation: 8255 ft
Nearby Weather Stations

Elev 8255 ft 40.05 °N, 105.92 °W | Updated 12 minutes ago

Overcast
Overcast
48.6 °F
Feels Like 49 °F
N
0.0
Wind Variable Wind from North
Gusts 0.0 mph

Today
High -- | Low -- °F
--% Chance of Precip.
Yesterday
High -- | Low -- °F
Precip. -- in
5:41 AM 8:35 PM
Waning Gibbous, 58% visible
Pressure 30.22 in
Visibility 10.0 miles
Clouds Overcast 2700 ft
Windchill 49 °F
Dew Point 45 °F
Humidity 87%
Rainfall 0.31 in
Snow Depth Not available.
UV 0 out of 12
Pollen 4.80 out of 12
Air Quality Not available.
Flu Activity Not available.
METAR K20V 080355Z AUTO 00000KT 10SM DZ OVC027 12/10 A3022 RMK AO2 LTG DSNT SW AND W

More Conditions Fewer Conditions

Pressure 30.22 in
Visibility 10.0 miles
Clouds Overcast 2700 ft
Windchill 49 °F
Dew Point 45 °F
Humidity 87%
Rainfall 0.31 in
Snow Depth Not available.
UV 0 out of 12
Pollen 4.80 out of 12
Air Quality Not available.
Flu Activity Not available.
METAR K20V 080355Z AUTO 00000KT 10SM DZ OVC027 12/10 A3022 RMK AO2 LTG DSNT SW AND W

More Conditions Fewer Conditions

10-Day Weather Forecast

×

Almanac

Astronomy

Jul. 07, 2015 Rise Set
Actual Time
Civil Twilight
Nautical Twilight
Astronomical Twilight
Moon
Length of Visible Light
Length of Day
Tomorrow will be .
, % of the Moon is Illuminated

Today's Extremes

State Highs State Lows

Community

WunderPhotos

Upload Photos

1,836,048 photos uploaded!

WunderBlogs® & News

Nearby

Air Quality

  Air Quality AQ Index Pollutant
Not available.

Snow Depth

Station Depth Elevation

Earthquake Activity

City Distance Mag. Time & Date
Minimum magnitude displayed is 2.5.

Coastal Water Temperatures

Place Temperature

Stations

Nearby Weather Stations

Station Location Temp. Windchill Dew Point Humidity Wind Precip. Elev Updated Type